sensor_id;sensor_type;location;lat;lon;timestamp;pressure;altitude;pressure_sealevel;temperature;humidity
65227;BME280;51805;49.012;12.104;2023-01-26T00:02:15;98305.19;;;22.15;41.63
65227;BME280;51805;49.012;12.104;2023-01-26T00:04:41;98299.25;;;22.13;41.76
65227;BME280;51805;49.012;12.104;2023-01-26T00:07:06;98293.81;;;22.08;41.76
65227;BME280;51805;49.012;12.104;2023-01-26T00:09:31;98280.84;;;22.10;41.73
65227;BME280;51805;49.012;12.104;2023-01-26T00:11:57;98281.91;;;22.04;41.81
65227;BME280;51805;49.012;12.104;2023-01-26T00:14:22;98275.13;;;22.06;41.91
65227;BME280;51805;49.012;12.104;2023-01-26T00:16:47;98272.97;;;22.03;41.91
65227;BME280;51805;49.012;12.104;2023-01-26T00:19:12;98285.41;;;21.99;41.90
65227;BME280;51805;49.012;12.104;2023-01-26T00:21:38;98278.66;;;22.02;41.87
65227;BME280;51805;49.012;12.104;2023-01-26T00:24:03;98282.69;;;22.04;41.79
65227;BME280;51805;49.012;12.104;2023-01-26T00:26:29;98268.63;;;21.97;41.94
65227;BME280;51805;49.012;12.104;2023-01-26T00:28:54;98268.66;;;22.02;41.76
65227;BME280;51805;49.012;12.104;2023-01-26T00:31:22;98265.38;;;21.95;41.84
65227;BME280;51805;49.012;12.104;2023-01-26T00:33:48;98280.00;;;21.99;41.86
65227;BME280;51805;49.012;12.104;2023-01-26T00:36:13;98259.41;;;21.93;41.95
65227;BME280;51805;49.012;12.104;2023-01-26T00:38:39;98258.88;;;21.96;41.95
65227;BME280;51805;49.012;12.104;2023-01-26T00:41:05;98275.09;;;21.96;41.85
65227;BME280;51805;49.012;12.104;2023-01-26T00:43:30;98270.25;;;21.88;42.09
65227;BME280;51805;49.012;12.104;2023-01-26T00:45:55;98273.19;;;21.92;41.57
65227;BME280;51805;49.012;12.104;2023-01-26T00:48:21;98263.75;;;21.89;42.12
65227;BME280;51805;49.012;12.104;2023-01-26T00:50:46;98249.13;;;21.90;41.95
65227;BME280;51805;49.012;12.104;2023-01-26T00:53:14;98249.13;;;21.90;42.12
65227;BME280;51805;49.012;12.104;2023-01-26T00:55:39;98242.63;;;21.86;42.10
65227;BME280;51805;49.012;12.104;2023-01-26T00:58:05;98244.25;;;21.87;42.09
65227;BME280;51805;49.012;12.104;2023-01-26T01:00:32;98256.16;;;21.86;42.12
65227;BME280;51805;49.012;12.104;2023-01-26T01:02:57;98257.50;;;21.89;42.10
65227;BME280;51805;49.012;12.104;2023-01-26T01:05:25;98256.97;;;21.87;42.07
65227;BME280;51805;49.012;12.104;2023-01-26T01:07:51;98255.59;;;21.84;42.13
65227;BME280;51805;49.012;12.104;2023-01-26T01:10:16;98258.59;;;21.88;42.05
65227;BME280;51805;49.012;12.104;2023-01-26T01:12:41;98251.84;;;21.85;42.18
65227;BME280;51805;49.012;12.104;2023-01-26T01:15:07;98250.72;;;21.81;42.33
65227;BME280;51805;49.012;12.104;2023-01-26T01:17:33;98249.13;;;21.80;42.27
65227;BME280;51805;49.012;12.104;2023-01-26T01:19:58;98236.41;;;21.81;42.21
65227;BME280;51805;49.012;12.104;2023-01-26T01:22:23;98232.88;;;21.80;42.41
65227;BME280;51805;49.012;12.104;2023-01-26T01:24:49;98243.69;;;21.80;42.06
65227;BME280;51805;49.012;12.104;2023-01-26T01:27:14;98243.69;;;21.75;42.31
65227;BME280;51805;49.012;12.104;2023-01-26T01:29:39;98231.53;;;21.78;42.34
65227;BME280;51805;49.012;12.104;2023-01-26T01:32:05;98232.81;;;21.70;42.45
65227;BME280;51805;49.012;12.104;2023-01-26T01:34:30;98231.22;;;21.74;42.49
65227;BME280;51805;49.012;12.104;2023-01-26T01:36:55;98235.56;;;21.75;42.44
65227;BME280;51805;49.012;12.104;2023-01-26T01:39:20;98229.59;;;21.68;42.26
65227;BME280;51805;49.012;12.104;2023-01-26T01:41:46;98228.47;;;21.64;42.64
65227;BME280;51805;49.012;12.104;2023-01-26T01:44:18;98236.59;;;21.64;42.52
65227;BME280;51805;49.012;12.104;2023-01-26T01:46:58;98225.50;;;21.66;42.38
65227;BME280;51805;49.012;12.104;2023-01-26T01:49:32;98226.31;;;21.66;42.32
65227;BME280;51805;49.012;12.104;2023-01-26T01:54:40;98223.34;;;21.68;42.43
65227;BME280;51805;49.012;12.104;2023-01-26T01:57:13;98222.00;;;21.65;42.60
65227;BME280;51805;49.012;12.104;2023-01-26T01:59:47;98218.19;;;21.61;42.39
65227;BME280;51805;49.012;12.104;2023-01-26T02:02:14;98210.59;;;21.58;42.57
65227;BME280;51805;49.012;12.104;2023-01-26T02:04:40;98217.13;;;21.62;42.71
65227;BME280;51805;49.012;12.104;2023-01-26T02:07:06;98214.13;;;21.59;42.62
65227;BME280;51805;49.012;12.104;2023-01-26T02:09:35;98204.69;;;21.66;42.45
65227;BME280;51805;49.012;12.104;2023-01-26T02:12:02;98199.00;;;21.63;42.36
65227;BME280;51805;49.012;12.104;2023-01-26T02:14:31;98199.81;;;21.63;42.32
65227;BME280;51805;49.012;12.104;2023-01-26T02:16:57;98193.84;;;21.61;42.47
65227;BME280;51805;49.012;12.104;2023-01-26T02:25:07;98182.50;;;21.59;42.65
65227;BME280;51805;49.012;12.104;2023-01-26T02:27:37;98178.16;;;21.58;42.51
65227;BME280;51805;49.012;12.104;2023-01-26T02:30:03;98178.72;;;21.60;42.42
65227;BME280;51805;49.012;12.104;2023-01-26T02:32:29;98179.25;;;21.57;42.53
65227;BME280;51805;49.012;12.104;2023-01-26T02:34:56;98180.56;;;21.55;42.61
65227;BME280;51805;49.012;12.104;2023-01-26T02:37:21;98168.97;;;21.54;42.54
65227;BME280;51805;49.012;12.104;2023-01-26T02:42:16;98167.31;;;21.53;42.64
65227;BME280;51805;49.012;12.104;2023-01-26T02:44:43;98166.50;;;21.48;42.65
65227;BME280;51805;49.012;12.104;2023-01-26T02:47:13;98165.72;;;21.52;42.58
65227;BME280;51805;49.012;12.104;2023-01-26T02:49:39;98155.44;;;21.54;42.45
65227;BME280;51805;49.012;12.104;2023-01-26T02:52:04;98155.72;;;21.53;42.70
65227;BME280;51805;49.012;12.104;2023-01-26T02:54:30;98154.88;;;21.47;42.64
65227;BME280;51805;49.012;12.104;2023-01-26T02:56:55;98149.47;;;21.47;42.54
65227;BME280;51805;49.012;12.104;2023-01-26T02:59:21;98155.44;;;21.49;42.58
65227;BME280;51805;49.012;12.104;2023-01-26T03:01:48;98146.75;;;21.47;42.77
65227;BME280;51805;49.012;12.104;2023-01-26T03:04:14;98148.41;;;21.48;42.57
65227;BME280;51805;49.012;12.104;2023-01-26T03:06:39;98142.97;;;21.43;42.72
65227;BME280;51805;49.012;12.104;2023-01-26T03:09:04;98151.09;;;21.43;42.73
65227;BME280;51805;49.012;12.104;2023-01-26T03:11:30;98144.06;;;21.47;42.65
65227;BME280;51805;49.012;12.104;2023-01-26T03:13:55;98154.88;;;21.42;42.71
65227;BME280;51805;49.012;12.104;2023-01-26T03:16:20;98147.56;;;21.42;42.75
65227;BME280;51805;49.012;12.104;2023-01-26T03:18:45;98150.28;;;21.37;42.85
65227;BME280;51805;49.012;12.104;2023-01-26T03:21:13;98145.13;;;21.41;42.82
65227;BME280;51805;49.012;12.104;2023-01-26T03:23:39;98160.28;;;21.42;42.72
65227;BME280;51805;49.012;12.104;2023-01-26T03:26:08;98155.16;;;21.40;42.72
65227;BME280;51805;49.012;12.104;2023-01-26T03:28:34;98146.75;;;21.37;42.72
65227;BME280;51805;49.012;12.104;2023-01-26T03:30:59;98152.13;;;21.32;42.78
65227;BME280;51805;49.012;12.104;2023-01-26T03:33:25;98150.00;;;21.34;42.75
65227;BME280;51805;49.012;12.104;2023-01-26T03:35:53;98139.97;;;21.29;42.75
65227;BME280;51805;49.012;12.104;2023-01-26T03:38:18;98147.00;;;21.30;43.00
65227;BME280;51805;49.012;12.104;2023-01-26T03:40:43;98140.25;;;21.33;42.95
65227;BME280;51805;49.012;12.104;2023-01-26T03:43:09;98142.41;;;21.31;42.96
65227;BME280;51805;49.012;12.104;2023-01-26T03:45:34;98125.66;;;21.29;42.76
65227;BME280;51805;49.012;12.104;2023-01-26T03:48:04;98139.16;;;21.29;42.97
65227;BME280;51805;49.012;12.104;2023-01-26T03:50:29;98129.16;;;21.24;42.97
65227;BME280;51805;49.012;12.104;2023-01-26T03:52:55;98135.38;;;21.25;43.09
65227;BME280;51805;49.012;12.104;2023-01-26T03:55:20;98126.44;;;21.24;42.96
65227;BME280;51805;49.012;12.104;2023-01-26T03:57:47;98135.38;;;21.25;43.10
65227;BME280;51805;49.012;12.104;2023-01-26T04:00:12;98134.81;;;21.23;43.17
65227;BME280;51805;49.012;12.104;2023-01-26T04:02:38;98139.66;;;21.21;43.25
65227;BME280;51805;49.012;12.104;2023-01-26T04:05:03;98131.56;;;21.21;43.51
65227;BME280;51805;49.012;12.104;2023-01-26T04:07:29;98131.03;;;21.19;43.77
65227;BME280;51805;49.012;12.104;2023-01-26T04:09:54;98135.88;;;21.17;43.88
65227;BME280;51805;49.012;12.104;2023-01-26T04:12:19;98134.81;;;21.18;43.87
65227;BME280;51805;49.012;12.104;2023-01-26T04:14:44;98138.59;;;21.17;43.97
65227;BME280;51805;49.012;12.104;2023-01-26T04:17:10;98138.03;;;21.15;44.04
65227;BME280;51805;49.012;12.104;2023-01-26T04:19:35;98139.13;;;21.14;43.94
65227;BME280;51805;49.012;12.104;2023-01-26T04:22:00;98143.97;;;21.12;44.16
65227;BME280;51805;49.012;12.104;2023-01-26T04:24:25;98136.41;;;21.14;44.09
65227;BME280;51805;49.012;12.104;2023-01-26T04:26:51;98137.47;;;21.13;44.14
65227;BME280;51805;49.012;12.104;2023-01-26T04:29:16;98136.69;;;21.12;44.20
65227;BME280;51805;49.012;12.104;2023-01-26T04:31:42;98133.16;;;21.12;44.35
65227;BME280;51805;49.012;12.104;2023-01-26T04:34:12;98132.88;;;21.08;44.40
65227;BME280;51805;49.012;12.104;2023-01-26T04:36:38;98130.44;;;21.07;44.14
65227;BME280;51805;49.012;12.104;2023-01-26T04:39:03;98131.53;;;21.06;44.50
65227;BME280;51805;49.012;12.104;2023-01-26T04:41:29;98116.94;;;21.07;44.46
65227;BME280;51805;49.012;12.104;2023-01-26T04:43:55;98122.59;;;21.05;44.50
65227;BME280;51805;49.012;12.104;2023-01-26T04:46:21;98112.34;;;20.97;44.75
65227;BME280;51805;49.012;12.104;2023-01-26T04:48:46;98119.63;;;21.02;44.71
65227;BME280;51805;49.012;12.104;2023-01-26T04:51:14;98118.53;;;21.03;44.71
65227;BME280;51805;49.012;12.104;2023-01-26T04:53:40;98111.25;;;20.98;44.86
65227;BME280;51805;49.012;12.104;2023-01-26T04:56:06;98107.19;;;21.01;44.97
65227;BME280;51805;49.012;12.104;2023-01-26T04:58:32;98118.25;;;20.99;44.83
65227;BME280;51805;49.012;12.104;2023-01-26T05:00:57;98118.53;;;20.98;44.90
65227;BME280;51805;49.012;12.104;2023-01-26T05:03:24;98112.59;;;20.96;45.04
65227;BME280;51805;49.012;12.104;2023-01-26T05:05:51;98122.06;;;20.98;45.05
65227;BME280;51805;49.012;12.104;2023-01-26T05:08:18;98108.81;;;20.97;45.27
65227;BME280;51805;49.012;12.104;2023-01-26T05:10:44;98116.91;;;20.97;45.38
65227;BME280;51805;49.012;12.104;2023-01-26T05:13:09;98115.50;;;20.94;45.39
65227;BME280;51805;49.012;12.104;2023-01-26T05:15:35;98111.78;;;20.95;45.43
65227;BME280;51805;49.012;12.104;2023-01-26T05:18:00;98117.19;;;20.95;45.43
65227;BME280;51805;49.012;12.104;2023-01-26T05:20:26;98124.44;;;20.95;45.25
65227;BME280;51805;49.012;12.104;2023-01-26T05:22:52;98122.00;;;20.93;45.33
65227;BME280;51805;49.012;12.104;2023-01-26T05:25:17;98124.44;;;20.95;45.07
65227;BME280;51805;49.012;12.104;2023-01-26T05:27:43;98123.88;;;20.93;45.18
65227;BME280;51805;49.012;12.104;2023-01-26T05:30:09;98125.28;;;20.95;45.19
65227;BME280;51805;49.012;12.104;2023-01-26T05:32:34;98124.19;;;20.96;44.98
65227;BME280;51805;49.012;12.104;2023-01-26T05:34:59;98127.19;;;21.00;44.78
65227;BME280;51805;49.012;12.104;2023-01-26T05:37:28;98134.47;;;20.99;44.87
65227;BME280;51805;49.012;12.104;2023-01-26T05:39:53;98123.94;;;20.98;45.12
65227;BME280;51805;49.012;12.104;2023-01-26T05:42:19;98129.88;;;21.00;44.96
65227;BME280;51805;49.012;12.104;2023-01-26T05:44:45;98132.06;;;21.03;44.85
65227;BME280;51805;49.012;12.104;2023-01-26T05:47:10;98122.34;;;21.02;44.81
65227;BME280;51805;49.012;12.104;2023-01-26T05:49:35;98106.66;;;20.99;44.75
65227;BME280;51805;49.012;12.104;2023-01-26T05:52:01;98120.16;;;21.04;44.80
65227;BME280;51805;49.012;12.104;2023-01-26T05:54:26;98114.22;;;21.07;44.70
65227;BME280;51805;49.012;12.104;2023-01-26T05:56:51;98118.56;;;21.08;44.56
65227;BME280;51805;49.012;12.104;2023-01-26T05:59:16;98117.78;;;21.12;44.40
65227;BME280;51805;49.012;12.104;2023-01-26T06:01:42;98116.41;;;21.15;44.23
65227;BME280;51805;49.012;12.104;2023-01-26T06:04:07;98121.56;;;21.16;44.37
65227;BME280;51805;49.012;12.104;2023-01-26T06:06:32;98119.13;;;21.20;44.34
65227;BME280;51805;49.012;12.104;2023-01-26T06:08:58;98128.06;;;21.20;44.17
65227;BME280;51805;49.012;12.104;2023-01-26T06:11:23;98120.22;;;21.24;44.03
65227;BME280;51805;49.012;12.104;2023-01-26T06:13:48;98120.22;;;21.24;44.23
65227;BME280;51805;49.012;12.104;2023-01-26T06:16:14;98116.47;;;21.25;44.09
65227;BME280;51805;49.012;12.104;2023-01-26T06:18:39;98124.56;;;21.30;43.84
65227;BME280;51805;49.012;12.104;2023-01-26T06:21:05;98115.91;;;21.28;43.93
65227;BME280;51805;49.012;12.104;2023-01-26T06:23:30;98123.75;;;21.29;44.14
65227;BME280;51805;49.012;12.104;2023-01-26T06:25:59;98133.22;;;21.32;43.88
65227;BME280;51805;49.012;12.104;2023-01-26T06:28:25;98128.63;;;21.32;43.86
65227;BME280;51805;49.012;12.104;2023-01-26T06:30:50;98127.81;;;21.32;43.80
65227;BME280;51805;49.012;12.104;2023-01-26T06:33:16;98123.75;;;21.34;43.92
65227;BME280;51805;49.012;12.104;2023-01-26T06:35:41;98126.19;;;21.36;43.85
65227;BME280;51805;49.012;12.104;2023-01-26T06:38:06;98124.03;;;21.38;43.91
65227;BME280;51805;49.012;12.104;2023-01-26T06:40:31;98124.59;;;21.40;43.62
65227;BME280;51805;49.012;12.104;2023-01-26T06:42:57;98120.78;;;21.36;43.91
65227;BME280;51805;49.012;12.104;2023-01-26T06:45:22;98110.53;;;21.38;43.77
65227;BME280;51805;49.012;12.104;2023-01-26T06:47:49;98112.16;;;21.39;43.86
65227;BME280;51805;49.012;12.104;2023-01-26T06:50:17;98110.22;;;21.34;43.82
65227;BME280;51805;49.012;12.104;2023-01-26T06:52:45;98102.97;;;21.40;43.78
65227;BME280;51805;49.012;12.104;2023-01-26T06:55:19;98105.41;;;21.41;43.80
65227;BME280;51805;49.012;12.104;2023-01-26T06:57:46;98109.72;;;21.42;43.54
65227;BME280;51805;49.012;12.104;2023-01-26T07:00:12;98094.88;;;21.45;43.60
65227;BME280;51805;49.012;12.104;2023-01-26T07:02:38;98102.16;;;21.44;43.71
65227;BME280;51805;49.012;12.104;2023-01-26T07:05:03;98109.19;;;21.51;43.52
65227;BME280;51805;49.012;12.104;2023-01-26T07:07:29;98109.47;;;21.49;43.69
65227;BME280;51805;49.012;12.104;2023-01-26T07:09:54;98117.03;;;21.52;43.53
65227;BME280;51805;49.012;12.104;2023-01-26T07:12:19;98106.75;;;21.49;43.55
65227;BME280;51805;49.012;12.104;2023-01-26T07:14:45;98097.00;;;21.53;43.45
65227;BME280;51805;49.012;12.104;2023-01-26T07:17:10;98107.03;;;21.53;43.54
65227;BME280;51805;49.012;12.104;2023-01-26T07:19:35;98112.19;;;21.54;43.39
65227;BME280;51805;49.012;12.104;2023-01-26T07:22:01;98111.09;;;21.55;43.35
65227;BME280;51805;49.012;12.104;2023-01-26T07:24:26;98104.06;;;21.54;43.54
65227;BME280;51805;49.012;12.104;2023-01-26T07:26:52;98103.25;;;21.59;43.44
65227;BME280;51805;49.012;12.104;2023-01-26T07:29:17;98099.72;;;21.58;43.34
65227;BME280;51805;49.012;12.104;2023-01-26T07:31:43;98098.66;;;21.59;43.39
65227;BME280;51805;49.012;12.104;2023-01-26T07:34:08;98097.56;;;21.60;43.32
65227;BME280;51805;49.012;12.104;2023-01-26T07:36:33;98102.16;;;21.60;43.27
65227;BME280;51805;49.012;12.104;2023-01-26T07:38:59;98102.72;;;21.62;43.48
65227;BME280;51805;49.012;12.104;2023-01-26T07:41:24;98097.03;;;21.63;43.27
65227;BME280;51805;49.012;12.104;2023-01-26T07:43:49;98098.09;;;21.67;43.23
65227;BME280;51805;49.012;12.104;2023-01-26T07:46:14;98102.72;;;21.67;43.30
65227;BME280;51805;49.012;12.104;2023-01-26T07:48:40;98093.50;;;21.68;43.33
65227;BME280;51805;49.012;12.104;2023-01-26T07:51:05;98103.50;;;21.67;43.18
65227;BME280;51805;49.012;12.104;2023-01-26T07:53:30;98095.94;;;21.69;43.25
65227;BME280;51805;49.012;12.104;2023-01-26T07:56:10;98101.09;;;21.71;43.29
65227;BME280;51805;49.012;12.104;2023-01-26T07:58:36;98103.56;;;21.77;43.25
65227;BME280;51805;49.012;12.104;2023-01-26T08:01:19;98093.81;;;21.76;43.24
65227;BME280;51805;49.012;12.104;2023-01-26T08:03:45;98103.03;;;21.80;43.16
65227;BME280;51805;49.012;12.104;2023-01-26T08:06:13;98102.47;;;21.83;43.32
65227;BME280;51805;49.012;12.104;2023-01-26T08:08:38;98084.31;;;21.74;43.37
65227;BME280;51805;49.012;12.104;2023-01-26T08:11:04;98100.84;;;21.87;43.41
65227;BME280;51805;49.012;12.104;2023-01-26T08:13:29;98097.63;;;21.85;43.37
65227;BME280;51805;49.012;12.104;2023-01-26T08:16:03;98107.06;;;21.88;43.50
65227;BME280;51805;49.012;12.104;2023-01-26T08:18:29;98100.56;;;21.89;43.34
65227;BME280;51805;49.012;12.104;2023-01-26T08:20:54;98093.81;;;21.91;43.33
65227;BME280;51805;49.012;12.104;2023-01-26T08:23:20;98099.22;;;21.91;43.47
65227;BME280;51805;49.012;12.104;2023-01-26T08:25:46;98098.69;;;21.94;43.33
65227;BME280;51805;49.012;12.104;2023-01-26T08:28:11;98091.38;;;21.85;43.57
65227;BME280;51805;49.012;12.104;2023-01-26T08:30:37;98097.03;;;21.93;43.54
65227;BME280;51805;49.012;12.104;2023-01-26T08:33:02;98099.75;;;21.93;43.59
65227;BME280;51805;49.012;12.104;2023-01-26T08:35:30;98092.44;;;21.94;43.53
65227;BME280;51805;49.012;12.104;2023-01-26T08:37:55;98100.84;;;21.97;43.51
65227;BME280;51805;49.012;12.104;2023-01-26T08:40:21;98099.75;;;21.98;43.71
65227;BME280;51805;49.012;12.104;2023-01-26T08:42:46;98095.16;;;21.99;43.58
65227;BME280;51805;49.012;12.104;2023-01-26T08:45:11;98099.47;;;22.00;43.78
65227;BME280;51805;49.012;12.104;2023-01-26T08:47:37;98088.09;;;21.98;43.93
65227;BME280;51805;49.012;12.104;2023-01-26T08:50:02;98091.63;;;22.03;43.70
65227;BME280;51805;49.012;12.104;2023-01-26T08:52:28;98102.47;;;22.03;43.83
65227;BME280;51805;49.012;12.104;2023-01-26T08:54:53;98102.75;;;22.07;43.74
65227;BME280;51805;49.012;12.104;2023-01-26T08:57:18;98097.06;;;22.08;43.60
65227;BME280;51805;49.012;12.104;2023-01-26T08:59:43;98111.38;;;22.09;43.81
65227;BME280;51805;49.012;12.104;2023-01-26T09:02:09;98106.78;;;22.09;43.75
65227;BME280;51805;49.012;12.104;2023-01-26T09:04:34;98093.53;;;22.08;43.81
65227;BME280;51805;49.012;12.104;2023-01-26T09:06:59;98084.84;;;22.06;43.86
65227;BME280;51805;49.012;12.104;2023-01-26T09:09:25;98095.41;;;22.12;43.85
65227;BME280;51805;49.012;12.104;2023-01-26T09:11:54;98097.03;;;22.13;43.77
65227;BME280;51805;49.012;12.104;2023-01-26T09:14:19;98096.22;;;22.13;43.82
65227;BME280;51805;49.012;12.104;2023-01-26T09:16:44;98098.66;;;22.14;43.67
65227;BME280;51805;49.012;12.104;2023-01-26T09:19:10;98098.91;;;22.18;43.73
65227;BME280;51805;49.012;12.104;2023-01-26T09:21:35;98095.13;;;22.19;43.76
65227;BME280;51805;49.012;12.104;2023-01-26T09:24:00;98086.19;;;22.13;43.88
65227;BME280;51805;49.012;12.104;2023-01-26T09:26:26;98088.34;;;22.21;43.91
65227;BME280;51805;49.012;12.104;2023-01-26T09:28:52;98092.44;;;22.24;43.78
65227;BME280;51805;49.012;12.104;2023-01-26T09:31:18;98095.41;;;22.22;43.90
65227;BME280;51805;49.012;12.104;2023-01-26T09:33:43;98094.84;;;22.25;43.88
65227;BME280;51805;49.012;12.104;2023-01-26T09:36:09;98090.22;;;22.26;44.12
65227;BME280;51805;49.012;12.104;2023-01-26T09:38:35;98090.78;;;22.28;44.00
65227;BME280;51805;49.012;12.104;2023-01-26T09:43:48;98097.53;;;22.30;43.92
65227;BME280;51805;49.012;12.104;2023-01-26T09:46:31;98094.53;;;22.32;43.91
65227;BME280;51805;49.012;12.104;2023-01-26T09:51:36;98096.47;;;22.31;43.93
65227;BME280;51805;49.012;12.104;2023-01-26T09:56:50;98085.88;;;22.35;43.91
65227;BME280;51805;49.012;12.104;2023-01-26T10:04:36;98085.59;;;22.36;44.03
65227;BME280;51805;49.012;12.104;2023-01-26T10:07:11;98088.84;;;22.38;44.13
65227;BME280;51805;49.012;12.104;2023-01-26T10:09:37;98076.41;;;22.37;43.94
65227;BME280;51805;49.012;12.104;2023-01-26T10:12:23;98074.78;;;22.36;44.07
65227;BME280;51805;49.012;12.104;2023-01-26T10:17:29;98075.03;;;22.40;44.01
65227;BME280;51805;49.012;12.104;2023-01-26T10:22:45;98068.78;;;22.44;43.98
65227;BME280;51805;49.012;12.104;2023-01-26T10:25:25;98067.72;;;22.45;43.97
65227;BME280;51805;49.012;12.104;2023-01-26T10:27:53;98052.81;;;22.43;43.87
65227;BME280;51805;49.012;12.104;2023-01-26T10:30:20;98060.94;;;22.48;43.78
65227;BME280;51805;49.012;12.104;2023-01-26T10:32:47;98067.16;;;22.48;43.99
65227;BME280;51805;49.012;12.104;2023-01-26T10:35:16;98059.06;;;22.48;43.93
65227;BME280;51805;49.012;12.104;2023-01-26T10:37:42;98057.44;;;22.52;43.82
65227;BME280;51805;49.012;12.104;2023-01-26T10:40:08;98065.28;;;22.54;43.67
65227;BME280;51805;49.012;12.104;2023-01-26T10:42:34;98068.25;;;22.52;43.95
65227;BME280;51805;49.012;12.104;2023-01-26T10:45:04;98068.81;;;22.54;43.98
65227;BME280;51805;49.012;12.104;2023-01-26T10:47:29;98060.69;;;22.54;43.83
65227;BME280;51805;49.012;12.104;2023-01-26T10:50:22;98054.72;;;22.52;43.84
65227;BME280;51805;49.012;12.104;2023-01-26T10:53:13;98053.06;;;22.56;43.91
65227;BME280;51805;49.012;12.104;2023-01-26T10:55:39;98055.50;;;22.58;43.82
65227;BME280;51805;49.012;12.104;2023-01-26T10:58:04;98052.00;;;22.57;43.87
65227;BME280;51805;49.012;12.104;2023-01-26T11:00:31;98048.47;;;22.57;43.79
65227;BME280;51805;49.012;12.104;2023-01-26T11:03:15;98049.56;;;22.61;43.79
65227;BME280;51805;49.012;12.104;2023-01-26T11:05:41;98050.34;;;22.61;43.78
65227;BME280;51805;49.012;12.104;2023-01-26T11:08:30;98044.38;;;22.64;43.75
65227;BME280;51805;49.012;12.104;2023-01-26T11:10:56;98046.56;;;22.62;43.81
65227;BME280;51805;49.012;12.104;2023-01-26T11:13:21;98043.31;;;22.60;43.84
65227;BME280;51805;49.012;12.104;2023-01-26T11:15:48;98042.50;;;22.55;43.89
65227;BME280;51805;49.012;12.104;2023-01-26T11:18:28;98037.63;;;22.57;43.97
65227;BME280;51805;49.012;12.104;2023-01-26T11:21:04;98045.47;;;22.58;43.87
65227;BME280;51805;49.012;12.104;2023-01-26T11:23:47;98025.75;;;22.53;43.84
65227;BME280;51805;49.012;12.104;2023-01-26T11:37:42;98025.41;;;22.59;43.74
65227;BME280;51805;49.012;12.104;2023-01-26T11:40:36;98016.78;;;22.62;43.48
65227;BME280;51805;49.012;12.104;2023-01-26T11:43:30;98020.28;;;22.63;43.71
65227;BME280;51805;49.012;12.104;2023-01-26T11:46:14;98003.22;;;22.62;43.63
65227;BME280;51805;49.012;12.104;2023-01-26T11:49:14;98009.16;;;22.64;43.61
65227;BME280;51805;49.012;12.104;2023-01-26T11:57:53;97978.09;;;22.47;43.75
65227;BME280;51805;49.012;12.104;2023-01-26T12:00:24;97999.41;;;22.63;43.45
65227;BME280;51805;49.012;12.104;2023-01-26T12:02:59;97987.25;;;22.61;43.50
65227;BME280;51805;49.012;12.104;2023-01-26T12:05:28;98000.47;;;22.67;43.71
65227;BME280;51805;49.012;12.104;2023-01-26T12:08:11;97997.47;;;22.69;43.60
65227;BME280;51805;49.012;12.104;2023-01-26T12:10:47;98005.59;;;22.74;43.67
65227;BME280;51805;49.012;12.104;2023-01-26T12:15:52;98003.16;;;22.72;43.71
65227;BME280;51805;49.012;12.104;2023-01-26T12:18:25;97998.56;;;22.73;43.74
65227;BME280;51805;49.012;12.104;2023-01-26T12:20:54;97998.28;;;22.74;43.76
65227;BME280;51805;49.012;12.104;2023-01-26T12:29:02;97990.16;;;22.74;43.94
65227;BME280;51805;49.012;12.104;2023-01-26T12:31:34;97987.16;;;22.76;44.10
65227;BME280;51805;49.012;12.104;2023-01-26T12:34:00;97987.94;;;22.76;44.08
65227;BME280;51805;49.012;12.104;2023-01-26T12:44:02;97962.22;;;22.79;44.10
65227;BME280;51805;49.012;12.104;2023-01-26T12:46:32;97968.16;;;22.81;44.10
65227;BME280;51805;49.012;12.104;2023-01-26T12:49:01;97961.94;;;22.80;44.17
65227;BME280;51805;49.012;12.104;2023-01-26T12:51:30;97958.41;;;22.80;44.32
65227;BME280;51805;49.012;12.104;2023-01-26T12:54:05;97961.94;;;22.80;44.17
65227;BME280;51805;49.012;12.104;2023-01-26T12:56:45;97957.34;;;22.81;44.22
65227;BME280;51805;49.012;12.104;2023-01-26T12:59:14;97956.50;;;22.80;44.17
65227;BME280;51805;49.012;12.104;2023-01-26T13:01:41;97953.53;;;22.82;44.16
65227;BME280;51805;49.012;12.104;2023-01-26T13:04:10;97954.34;;;22.82;44.16
65227;BME280;51805;49.012;12.104;2023-01-26T13:06:36;97947.81;;;22.83;44.12
65227;BME280;51805;49.012;12.104;2023-01-26T13:09:10;97940.22;;;22.85;44.10
65227;BME280;51805;49.012;12.104;2023-01-26T13:11:51;97946.72;;;22.84;44.17
65227;BME280;51805;49.012;12.104;2023-01-26T13:27:28;97942.41;;;22.83;44.20
65227;BME280;51805;49.012;12.104;2023-01-26T13:29:53;97939.41;;;22.85;44.30
65227;BME280;51805;49.012;12.104;2023-01-26T13:34:45;97936.41;;;22.86;44.33
65227;BME280;51805;49.012;12.104;2023-01-26T13:37:29;97936.13;;;22.88;44.28
65227;BME280;51805;49.012;12.104;2023-01-26T13:39:58;97942.38;;;22.88;44.26
65227;BME280;51805;49.012;12.104;2023-01-26T13:42:24;97946.97;;;22.88;44.26
65227;BME280;51805;49.012;12.104;2023-01-26T13:45:00;97944.53;;;22.86;44.30
65227;BME280;51805;49.012;12.104;2023-01-26T13:47:33;97951.56;;;22.87;44.29
65227;BME280;51805;49.012;12.104;2023-01-26T13:49:59;97939.13;;;22.86;44.37
65227;BME280;51805;49.012;12.104;2023-01-26T13:52:25;97940.16;;;22.90;44.25
65227;BME280;51805;49.012;12.104;2023-01-26T13:54:51;97945.03;;;22.93;44.32
65227;BME280;51805;49.012;12.104;2023-01-26T13:57:21;97943.94;;;22.94;44.20
65227;BME280;51805;49.012;12.104;2023-01-26T13:59:50;97935.81;;;22.94;44.26
65227;BME280;51805;49.012;12.104;2023-01-26T14:02:23;97929.06;;;22.92;44.38
65227;BME280;51805;49.012;12.104;2023-01-26T14:04:55;97927.97;;;22.93;44.26
65227;BME280;51805;49.012;12.104;2023-01-26T14:07:22;97933.69;;;22.91;44.39
65227;BME280;51805;49.012;12.104;2023-01-26T14:09:49;97931.75;;;22.92;44.44
65227;BME280;51805;49.012;12.104;2023-01-26T14:12:22;97930.16;;;22.91;44.42